aviador You're here:

SULS Decoded Metar

MALDONADO in URUGUAY
Report Time2018-02-18 21:00:00
UTC Time2018-02-18 21:39:03
Flight Rules vfr VFR
Wind110° at 12 kt
W.Decomp.*RWY 08: 9.5 kt HW 7.4 kt RCW
RWY 19: 3.7 kt HW 11.4 kt LCW
W.Rank110° ranks 32
Current wind is above 110° avg. (8.8)
Visibility9999 m
Phenomena:N/A
Clouds:Few 030 Hf
Scattered 200 Hf
Expected CloudBase > 5,600 ft AGL from Temp-Dew spread
CeilingNone
Temp32°C (ISA +17)
Dew Point18°C (43% RH)
Heat Index32.8°C
AAT30.4°C
QNH1004 hPa
Density Alt2,638 ft
Elevation98 ft
Report Wrong Elevation
Raw Report
METAR SULS 182100Z 11012KT 9999 FEW030 SCT200 32/18 Q1004=

Extra information for SULS:More info

Metar Taf Metar & Taf Last 4 Metars F.Rules Stats Wind Profile Meteogram Temp Stats Airport Information Weather charts Add Link Nearby VenuesMetar ALERT Operation Metar Decoded Social comments